Terminal Aerodrome Forecast
Issued by NWS North Platte, NE

Home | Current Version | Previous Version | Text Only | Print | Product List | Glossary Off
Versions: 1 2 3 4 5 6 7 8 9 10 11 12 13 14 15 16 17 18

354
FTUS43 KLBF 190420 AAB
TAFVTN
TAF AMD
KVTN 190420Z 1904/1924 36020G28KT 6SM -SN OVC013
     FM191200 01015G22KT P6SM OVC010
     FM191800 01012G18KT P6SM OVC020=

USA.gov is the U.S. government's official web portal to all federal, state and local government web resources and services.